sensor_id;sensor_type;location;lat;lon;timestamp;pressure;altitude;pressure_sealevel;temperature;humidity
8286;BME280;4181;43.416;24.598;2023-05-18T00:02:12;98460.63;;;16.09;100.00
8286;BME280;4181;43.416;24.598;2023-05-18T00:04:40;98439.56;;;16.22;100.00
8286;BME280;4181;43.416;24.598;2023-05-18T00:07:05;98438.88;;;16.33;100.00
8286;BME280;4181;43.416;24.598;2023-05-18T00:09:33;98426.88;;;16.47;100.00
8286;BME280;4181;43.416;24.598;2023-05-18T00:11:59;98407.41;;;16.52;100.00
8286;BME280;4181;43.416;24.598;2023-05-18T00:14:26;98424.72;;;16.61;100.00
8286;BME280;4181;43.416;24.598;2023-05-18T00:16:53;98436.66;;;16.65;100.00
8286;BME280;4181;43.416;24.598;2023-05-18T00:19:19;98440.03;;;16.70;100.00
8286;BME280;4181;43.416;24.598;2023-05-18T00:21:46;98436.91;;;16.80;100.00
8286;BME280;4181;43.416;24.598;2023-05-18T00:24:12;98438.84;;;16.80;100.00
8286;BME280;4181;43.416;24.598;2023-05-18T00:26:39;98433.13;;;16.85;100.00
8286;BME280;4181;43.416;24.598;2023-05-18T00:29:05;98473.03;;;16.79;100.00
8286;BME280;4181;43.416;24.598;2023-05-18T00:31:32;98494.47;;;16.65;100.00
8286;BME280;4181;43.416;24.598;2023-05-18T00:34:03;98483.63;;;16.68;100.00
8286;BME280;4181;43.416;24.598;2023-05-18T00:36:29;98486.69;;;16.67;100.00
8286;BME280;4181;43.416;24.598;2023-05-18T00:38:56;98474.34;;;16.73;100.00
8286;BME280;4181;43.416;24.598;2023-05-18T00:41:21;98461.53;;;16.77;100.00
8286;BME280;4181;43.416;24.598;2023-05-18T00:43:47;98469.88;;;16.60;100.00
8286;BME280;4181;43.416;24.598;2023-05-18T00:46:13;98447.34;;;16.66;100.00
8286;BME280;4181;43.416;24.598;2023-05-18T00:48:38;98426.41;;;16.74;100.00
8286;BME280;4181;43.416;24.598;2023-05-18T00:51:04;98413.38;;;16.83;100.00
8286;BME280;4181;43.416;24.598;2023-05-18T00:53:31;98414.16;;;16.92;100.00
8286;BME280;4181;43.416;24.598;2023-05-18T00:55:57;98426.47;;;16.86;100.00
8286;BME280;4181;43.416;24.598;2023-05-18T00:58:23;98435.22;;;16.88;100.00
8286;BME280;4181;43.416;24.598;2023-05-18T01:00:50;98448.44;;;16.74;100.00
8286;BME280;4181;43.416;24.598;2023-05-18T01:03:15;98464.28;;;16.77;100.00
8286;BME280;4181;43.416;24.598;2023-05-18T01:05:44;98481.19;;;16.67;100.00
8286;BME280;4181;43.416;24.598;2023-05-18T01:08:09;98463.34;;;16.73;100.00
8286;BME280;4181;43.416;24.598;2023-05-18T01:10:36;98469.81;;;16.77;100.00
8286;BME280;4181;43.416;24.598;2023-05-18T01:13:09;98456.84;;;16.77;100.00
8286;BME280;4181;43.416;24.598;2023-05-18T01:15:38;98453.09;;;16.82;100.00
8286;BME280;4181;43.416;24.598;2023-05-18T01:26:27;98464.28;;;16.77;100.00
8286;BME280;4181;43.416;24.598;2023-05-18T01:29:03;98471.69;;;16.85;100.00
8286;BME280;4181;43.416;24.598;2023-05-18T01:31:29;98488.09;;;16.81;100.00
8286;BME280;4181;43.416;24.598;2023-05-18T01:33:55;98481.63;;;16.77;100.00
8286;BME280;4181;43.416;24.598;2023-05-18T01:36:20;98475.03;;;16.70;100.00
8286;BME280;4181;43.416;24.598;2023-05-18T01:38:47;98462.88;;;16.71;100.00
8286;BME280;4181;43.416;24.598;2023-05-18T01:41:22;98465.63;;;16.71;100.00
8286;BME280;4181;43.416;24.598;2023-05-18T01:49:24;98455.75;;;16.70;100.00
8286;BME280;4181;43.416;24.598;2023-05-18T01:51:53;98460.50;;;16.61;100.00
8286;BME280;4181;43.416;24.598;2023-05-18T01:54:22;98458.69;;;16.65;100.00
8286;BME280;4181;43.416;24.598;2023-05-18T01:56:50;98455.41;;;16.71;100.00
8286;BME280;4181;43.416;24.598;2023-05-18T01:59:18;98449.75;;;16.68;100.00
8286;BME280;4181;43.416;24.598;2023-05-18T02:01:44;98453.94;;;16.74;100.00
8286;BME280;4181;43.416;24.598;2023-05-18T02:04:09;98455.78;;;16.61;100.00
8286;BME280;4181;43.416;24.598;2023-05-18T02:06:35;98456.13;;;16.60;100.00
8286;BME280;4181;43.416;24.598;2023-05-18T02:09:02;98447.34;;;16.66;100.00
8286;BME280;4181;43.416;24.598;2023-05-18T02:11:28;98454.63;;;16.71;100.00
8286;BME280;4181;43.416;24.598;2023-05-18T02:13:54;98450.56;;;16.68;100.00
8286;BME280;4181;43.416;24.598;2023-05-18T02:16:20;98446.38;;;16.71;100.00
8286;BME280;4181;43.416;24.598;2023-05-18T02:18:45;98445.22;;;16.72;100.00
8286;BME280;4181;43.416;24.598;2023-05-18T02:21:11;98453.94;;;16.74;100.00
8286;BME280;4181;43.416;24.598;2023-05-18T02:23:38;98464.50;;;16.72;100.00
8286;BME280;4181;43.416;24.598;2023-05-18T02:26:04;98461.41;;;16.73;100.00
8286;BME280;4181;43.416;24.598;2023-05-18T02:28:29;98467.91;;;16.69;100.00
8286;BME280;4181;43.416;24.598;2023-05-18T02:31:04;98466.91;;;16.73;100.00
8286;BME280;4181;43.416;24.598;2023-05-18T02:33:30;98481.00;;;16.72;100.00
8286;BME280;4181;43.416;24.598;2023-05-18T02:36:10;98483.47;;;16.65;100.00
8286;BME280;4181;43.416;24.598;2023-05-18T02:38:41;98494.09;;;16.46;100.00
8286;BME280;4181;43.416;24.598;2023-05-18T02:41:08;98495.16;;;16.44;100.00
8286;BME280;4181;43.416;24.598;2023-05-18T02:43:34;98508.81;;;16.32;100.00
8286;BME280;4181;43.416;24.598;2023-05-18T02:46:00;98505.13;;;16.20;100.00
8286;BME280;4181;43.416;24.598;2023-05-18T02:48:25;98507.53;;;16.21;100.00
8286;BME280;4181;43.416;24.598;2023-05-18T02:50:52;98503.81;;;16.17;100.00
8286;BME280;4181;43.416;24.598;2023-05-18T02:53:17;98500.91;;;16.22;100.00
8286;BME280;4181;43.416;24.598;2023-05-18T02:55:43;98500.28;;;16.08;100.00
8286;BME280;4181;43.416;24.598;2023-05-18T02:58:11;98497.53;;;16.08;100.00
8286;BME280;4181;43.416;24.598;2023-05-18T03:00:38;98500.47;;;16.03;100.00
8286;BME280;4181;43.416;24.598;2023-05-18T03:03:03;98500.31;;;15.91;100.00
8286;BME280;4181;43.416;24.598;2023-05-18T03:05:29;98492.41;;;15.81;100.00
8286;BME280;4181;43.416;24.598;2023-05-18T03:07:54;98490.16;;;15.75;100.00
8286;BME280;4181;43.416;24.598;2023-05-18T03:10:20;98485.63;;;15.70;100.00
8286;BME280;4181;43.416;24.598;2023-05-18T03:12:46;98483.50;;;15.67;100.00
8286;BME280;4181;43.416;24.598;2023-05-18T03:15:12;98462.00;;;15.61;100.00
8286;BME280;4181;43.416;24.598;2023-05-18T03:17:41;98460.72;;;15.75;100.00
8286;BME280;4181;43.416;24.598;2023-05-18T03:20:07;98453.59;;;15.74;100.00
8286;BME280;4181;43.416;24.598;2023-05-18T03:22:34;98452.47;;;15.75;100.00
8286;BME280;4181;43.416;24.598;2023-05-18T03:25:00;98454.53;;;15.95;100.00
8286;BME280;4181;43.416;24.598;2023-05-18T03:27:26;98456.97;;;15.88;100.00
8286;BME280;4181;43.416;24.598;2023-05-18T03:29:52;98464.72;;;15.95;100.00
8286;BME280;4181;43.416;24.598;2023-05-18T03:32:18;98454.03;;;16.02;100.00
8286;BME280;4181;43.416;24.598;2023-05-18T03:34:44;98457.41;;;16.07;100.00
8286;BME280;4181;43.416;24.598;2023-05-18T03:37:12;98465.63;;;16.16;100.00
8286;BME280;4181;43.416;24.598;2023-05-18T03:39:38;98470.66;;;16.14;100.00
8286;BME280;4181;43.416;24.598;2023-05-18T03:42:03;98477.28;;;16.13;100.00
8286;BME280;4181;43.416;24.598;2023-05-18T03:44:29;98506.47;;;15.97;100.00
8286;BME280;4181;43.416;24.598;2023-05-18T03:46:55;98505.31;;;15.89;100.00
8286;BME280;4181;43.416;24.598;2023-05-18T03:49:20;98492.72;;;15.97;100.00
8286;BME280;4181;43.416;24.598;2023-05-18T03:51:46;98489.28;;;16.17;100.00
8286;BME280;4181;43.416;24.598;2023-05-18T03:54:11;98468.19;;;16.21;100.00
8286;BME280;4181;43.416;24.598;2023-05-18T03:56:37;98479.69;;;16.31;100.00
8286;BME280;4181;43.416;24.598;2023-05-18T03:59:02;98480.34;;;16.28;100.00
8286;BME280;4181;43.416;24.598;2023-05-18T04:01:30;98479.53;;;16.19;100.00
8286;BME280;4181;43.416;24.598;2023-05-18T04:03:56;98470.44;;;16.27;100.00
8286;BME280;4181;43.416;24.598;2023-05-18T04:06:22;98461.19;;;16.40;100.00
8286;BME280;4181;43.416;24.598;2023-05-18T04:08:48;98459.22;;;16.50;100.00
8286;BME280;4181;43.416;24.598;2023-05-18T04:11:14;98461.63;;;16.60;100.00
8286;BME280;4181;43.416;24.598;2023-05-18T04:13:39;98459.16;;;16.67;100.00
8286;BME280;4181;43.416;24.598;2023-05-18T04:16:06;98463.81;;;16.75;100.00
8286;BME280;4181;43.416;24.598;2023-05-18T04:18:32;98464.28;;;16.77;100.00
8286;BME280;4181;43.416;24.598;2023-05-18T04:20:57;98472.56;;;16.77;100.00
8286;BME280;4181;43.416;24.598;2023-05-18T04:23:24;98474.78;;;16.83;100.00
8286;BME280;4181;43.416;24.598;2023-05-18T04:25:50;98482.03;;;16.88;100.00
8286;BME280;4181;43.416;24.598;2023-05-18T04:28:16;98481.25;;;16.87;100.00
8286;BME280;4181;43.416;24.598;2023-05-18T04:30:41;98490.78;;;16.90;100.00
8286;BME280;4181;43.416;24.598;2023-05-18T04:33:07;98498.56;;;16.88;100.00
8286;BME280;4181;43.416;24.598;2023-05-18T04:35:32;98514.16;;;16.84;100.00
8286;BME280;4181;43.416;24.598;2023-05-18T04:37:58;98505.06;;;16.92;100.00
8286;BME280;4181;43.416;24.598;2023-05-18T04:40:23;98509.59;;;16.88;100.00
8286;BME280;4181;43.416;24.598;2023-05-18T04:42:49;98505.72;;;16.89;100.00
8286;BME280;4181;43.416;24.598;2023-05-18T04:45:16;98517.09;;;16.79;100.00
8286;BME280;4181;43.416;24.598;2023-05-18T04:47:44;98507.25;;;16.69;100.00
8286;BME280;4181;43.416;24.598;2023-05-18T04:50:18;98509.81;;;16.74;100.00
8286;BME280;4181;43.416;24.598;2023-05-18T04:52:45;98504.94;;;16.80;100.00
8286;BME280;4181;43.416;24.598;2023-05-18T04:55:18;98508.84;;;16.79;100.00
8286;BME280;4181;43.416;24.598;2023-05-18T04:57:50;98508.84;;;16.79;100.00
8286;BME280;4181;43.416;24.598;2023-05-18T05:00:19;98502.28;;;16.92;100.00
8286;BME280;4181;43.416;24.598;2023-05-18T05:02:44;98505.50;;;17.02;100.00
8286;BME280;4181;43.416;24.598;2023-05-18T05:05:10;98511.56;;;17.16;100.00
8286;BME280;4181;43.416;24.598;2023-05-18T05:07:36;98521.13;;;17.19;100.00
8286;BME280;4181;43.416;24.598;2023-05-18T05:10:01;98529.03;;;17.20;100.00
8286;BME280;4181;43.416;24.598;2023-05-18T05:12:27;98521.84;;;17.28;100.00
8286;BME280;4181;43.416;24.598;2023-05-18T05:14:53;98534.13;;;17.39;100.00
8286;BME280;4181;43.416;24.598;2023-05-18T05:17:19;98539.44;;;17.44;100.00
8286;BME280;4181;43.416;24.598;2023-05-18T05:19:44;98540.19;;;17.53;100.00
8286;BME280;4181;43.416;24.598;2023-05-18T05:22:10;98556.56;;;17.58;100.00
8286;BME280;4181;43.416;24.598;2023-05-18T05:24:35;98563.81;;;17.62;100.00
8286;BME280;4181;43.416;24.598;2023-05-18T05:27:01;98567.88;;;17.65;100.00
8286;BME280;4181;43.416;24.598;2023-05-18T05:29:26;98583.94;;;17.63;100.00
8286;BME280;4181;43.416;24.598;2023-05-18T05:31:52;98575.94;;;17.70;100.00
8286;BME280;4181;43.416;24.598;2023-05-18T05:34:17;98584.34;;;17.74;100.00
8286;BME280;4181;43.416;24.598;2023-05-18T05:36:43;98593.44;;;17.74;100.00
8286;BME280;4181;43.416;24.598;2023-05-18T05:39:08;98598.78;;;17.79;100.00
8286;BME280;4181;43.416;24.598;2023-05-18T05:41:34;98610.25;;;17.81;100.00
8286;BME280;4181;43.416;24.598;2023-05-18T05:43:59;98615.56;;;17.86;100.00
8286;BME280;4181;43.416;24.598;2023-05-18T05:46:25;98624.00;;;17.90;100.00
8286;BME280;4181;43.416;24.598;2023-05-18T05:48:51;98631.78;;;17.88;100.00
8286;BME280;4181;43.416;24.598;2023-05-18T05:51:16;98622.66;;;17.96;100.00
8286;BME280;4181;43.416;24.598;2023-05-18T05:53:42;98629.09;;;18.00;100.00
8286;BME280;4181;43.416;24.598;2023-05-18T05:56:08;98650.59;;;17.94;100.00
8286;BME280;4181;43.416;24.598;2023-05-18T05:58:33;98655.44;;;17.97;100.00
8286;BME280;4181;43.416;24.598;2023-05-18T06:00:59;98639.41;;;18.11;100.00
8286;BME280;4181;43.416;24.598;2023-05-18T06:03:25;98650.78;;;18.10;100.00
8286;BME280;4181;43.416;24.598;2023-05-18T06:05:50;98650.16;;;18.04;100.00
8286;BME280;4181;43.416;24.598;2023-05-18T06:08:16;98638.19;;;18.00;100.00
8286;BME280;4181;43.416;24.598;2023-05-18T06:10:42;98644.06;;;17.99;100.00
8286;BME280;4181;43.416;24.598;2023-05-18T06:13:07;98659.53;;;17.91;100.00
8286;BME280;4181;43.416;24.598;2023-05-18T06:15:33;98694.47;;;17.87;100.00
8286;BME280;4181;43.416;24.598;2023-05-18T06:17:58;98707.09;;;17.88;100.00
8286;BME280;4181;43.416;24.598;2023-05-18T06:20:24;98718.31;;;17.83;100.00
8286;BME280;4181;43.416;24.598;2023-05-18T06:22:50;98730.66;;;17.86;100.00
8286;BME280;4181;43.416;24.598;2023-05-18T06:25:16;98741.38;;;17.87;100.00
8286;BME280;4181;43.416;24.598;2023-05-18T06:27:42;98748.31;;;17.93;100.00
8286;BME280;4181;43.416;24.598;2023-05-18T06:30:08;98759.81;;;17.95;100.00
8286;BME280;4181;43.416;24.598;2023-05-18T06:32:35;98764.34;;;18.00;100.00
8286;BME280;4181;43.416;24.598;2023-05-18T06:35:01;98758.28;;;18.06;100.00
8286;BME280;4181;43.416;24.598;2023-05-18T06:37:28;98758.25;;;18.15;100.00
8286;BME280;4181;43.416;24.598;2023-05-18T06:39:53;98768.75;;;18.21;100.00
8286;BME280;4181;43.416;24.598;2023-05-18T06:42:19;98789.56;;;18.19;100.00
8286;BME280;4181;43.416;24.598;2023-05-18T06:44:44;98797.47;;;18.29;100.00
8286;BME280;4181;43.416;24.598;2023-05-18T06:47:10;98786.53;;;18.41;100.00
8286;BME280;4181;43.416;24.598;2023-05-18T06:49:35;98801.28;;;18.45;100.00
8286;BME280;4181;43.416;24.598;2023-05-18T06:52:01;98795.38;;;18.55;100.00
8286;BME280;4181;43.416;24.598;2023-05-18T06:54:27;98796.56;;;18.66;100.00
8286;BME280;4181;43.416;24.598;2023-05-18T06:56:54;98815.66;;;18.79;100.00
8286;BME280;4181;43.416;24.598;2023-05-18T06:59:19;98841.41;;;18.92;100.00
8286;BME280;4181;43.416;24.598;2023-05-18T07:01:46;98845.09;;;18.96;100.00
8286;BME280;4181;43.416;24.598;2023-05-18T07:04:11;98885.03;;;18.86;100.00
8286;BME280;4181;43.416;24.598;2023-05-18T07:06:37;98900.94;;;18.89;100.00
8286;BME280;4181;43.416;24.598;2023-05-18T07:09:03;98906.25;;;18.94;100.00
8286;BME280;4181;43.416;24.598;2023-05-18T07:11:28;98933.16;;;18.85;100.00
8286;BME280;4181;43.416;24.598;2023-05-18T07:13:54;98966.63;;;18.92;100.00
8286;BME280;4181;43.416;24.598;2023-05-18T07:16:19;98952.78;;;18.92;100.00
8286;BME280;4181;43.416;24.598;2023-05-18T07:18:44;98957.84;;;19.11;100.00
8286;BME280;4181;43.416;24.598;2023-05-18T07:21:10;98983.91;;;19.10;100.00
8286;BME280;4181;43.416;24.598;2023-05-18T07:23:36;99010.28;;;19.08;100.00
8286;BME280;4181;43.416;24.598;2023-05-18T07:26:01;98992.81;;;19.16;100.00
8286;BME280;4181;43.416;24.598;2023-05-18T07:28:26;99000.47;;;19.10;100.00
8286;BME280;4181;43.416;24.598;2023-05-18T07:30:52;99001.09;;;19.16;100.00
8286;BME280;4181;43.416;24.598;2023-05-18T07:33:17;99018.28;;;19.21;100.00
8286;BME280;4181;43.416;24.598;2023-05-18T07:35:43;99033.56;;;19.27;100.00
8286;BME280;4181;43.416;24.598;2023-05-18T07:38:08;99043.50;;;19.20;100.00
8286;BME280;4181;43.416;24.598;2023-05-18T07:40:33;99056.88;;;19.18;100.00
8286;BME280;4181;43.416;24.598;2023-05-18T07:42:59;99056.88;;;19.18;100.00
8286;BME280;4181;43.416;24.598;2023-05-18T07:45:25;99067.44;;;19.24;100.00
8286;BME280;4181;43.416;24.598;2023-05-18T07:47:50;99062.69;;;19.25;100.00
8286;BME280;4181;43.416;24.598;2023-05-18T07:50:16;99055.88;;;19.31;100.00
8286;BME280;4181;43.416;24.598;2023-05-18T07:52:41;99044.41;;;19.41;100.00
8286;BME280;4181;43.416;24.598;2023-05-18T07:55:07;99048.94;;;19.45;100.00
8286;BME280;4181;43.416;24.598;2023-05-18T07:57:33;99057.22;;;19.45;100.00
8286;BME280;4181;43.416;24.598;2023-05-18T07:59:59;99080.81;;;19.43;100.00
8286;BME280;4181;43.416;24.598;2023-05-18T08:02:25;99103.91;;;19.47;100.00
8286;BME280;4181;43.416;24.598;2023-05-18T08:04:50;99153.28;;;19.36;100.00
8286;BME280;4181;43.416;24.598;2023-05-18T08:07:16;99157.34;;;19.39;100.00
8286;BME280;4181;43.416;24.598;2023-05-18T08:09:42;99164.63;;;19.43;100.00
8286;BME280;4181;43.416;24.598;2023-05-18T08:12:08;99157.31;;;19.47;100.00
8286;BME280;4181;43.416;24.598;2023-05-18T08:14:34;99182.06;;;19.44;100.00
8286;BME280;4181;43.416;24.598;2023-05-18T08:17:00;99195.25;;;19.38;100.00
8286;BME280;4181;43.416;24.598;2023-05-18T08:19:25;99199.97;;;19.38;100.00
8286;BME280;4181;43.416;24.598;2023-05-18T08:21:51;99212.00;;;19.42;100.00
8286;BME280;4181;43.416;24.598;2023-05-18T08:24:16;99209.72;;;19.44;100.00
8286;BME280;4181;43.416;24.598;2023-05-18T08:26:41;99217.91;;;19.32;100.00
8286;BME280;4181;43.416;24.598;2023-05-18T08:29:07;99209.91;;;19.39;100.00
8286;BME280;4181;43.416;24.598;2023-05-18T08:31:39;99226.66;;;19.42;100.00
8286;BME280;4181;43.416;24.598;2023-05-18T08:34:06;99251.88;;;19.41;100.00
8286;BME280;4181;43.416;24.598;2023-05-18T08:36:33;99242.91;;;19.44;100.00
8286;BME280;4181;43.416;24.598;2023-05-18T08:38:59;99245.38;;;19.37;100.00
8286;BME280;4181;43.416;24.598;2023-05-18T08:41:42;99235.56;;;19.48;100.00
8286;BME280;4181;43.416;24.598;2023-05-18T08:44:23;99235.06;;;19.54;100.00
8286;BME280;4181;43.416;24.598;2023-05-18T08:46:50;99238.16;;;19.53;100.00
8286;BME280;4181;43.416;24.598;2023-05-18T08:49:17;99261.47;;;19.43;100.00
8286;BME280;4181;43.416;24.598;2023-05-18T08:51:47;99279.06;;;19.39;100.00
8286;BME280;4181;43.416;24.598;2023-05-18T08:54:20;99285.09;;;19.41;100.00
8286;BME280;4181;43.416;24.598;2023-05-18T08:56:46;99293.56;;;19.36;100.00
8286;BME280;4181;43.416;24.598;2023-05-18T08:59:15;99304.94;;;19.34;100.00
8286;BME280;4181;43.416;24.598;2023-05-18T09:01:43;99294.06;;;19.29;100.00
8286;BME280;4181;43.416;24.598;2023-05-18T09:04:08;99323.97;;;19.10;100.00
8286;BME280;4181;43.416;24.598;2023-05-18T09:06:34;99341.72;;;19.09;100.00
8286;BME280;4181;43.416;24.598;2023-05-18T09:09:01;99360.53;;;18.73;100.00
8286;BME280;4181;43.416;24.598;2023-05-18T09:11:32;99359.41;;;18.65;100.00
8286;BME280;4181;43.416;24.598;2023-05-18T09:13:59;99310.66;;;18.86;100.00
8286;BME280;4181;43.416;24.598;2023-05-18T09:16:25;99296.34;;;19.02;100.00
8286;BME280;4181;43.416;24.598;2023-05-18T09:18:51;99307.22;;;19.15;100.00
8286;BME280;4181;43.416;24.598;2023-05-18T09:21:17;99326.25;;;19.17;100.00
8286;BME280;4181;43.416;24.598;2023-05-18T09:23:43;99350.19;;;19.04;100.00
8286;BME280;4181;43.416;24.598;2023-05-18T09:26:09;99352.44;;;19.11;100.00
8286;BME280;4181;43.416;24.598;2023-05-18T09:28:38;99324.47;;;19.29;100.00
8286;BME280;4181;43.416;24.598;2023-05-18T09:31:05;99331.28;;;19.40;100.00
8286;BME280;4181;43.416;24.598;2023-05-18T09:33:35;99347.53;;;19.50;100.00
8286;BME280;4181;43.416;24.598;2023-05-18T09:36:03;99362.31;;;19.63;100.00
8286;BME280;4181;43.416;24.598;2023-05-18T09:38:29;99381.66;;;19.71;100.00
8286;BME280;4181;43.416;24.598;2023-05-18T09:40:54;99422.22;;;19.76;100.00
8286;BME280;4181;43.416;24.598;2023-05-18T09:43:20;99484.72;;;19.77;100.00
8286;BME280;4181;43.416;24.598;2023-05-18T09:45:47;99511.75;;;19.63;100.00
8286;BME280;4181;43.416;24.598;2023-05-18T09:48:14;99489.59;;;19.71;100.00
8286;BME280;4181;43.416;24.598;2023-05-18T09:50:42;99510.31;;;19.65;100.00
8286;BME280;4181;43.416;24.598;2023-05-18T09:53:08;99559.13;;;19.53;100.00
8286;BME280;4181;43.416;24.598;2023-05-18T09:55:44;99593.97;;;19.54;100.00
8286;BME280;4181;43.416;24.598;2023-05-18T09:58:10;99607.63;;;19.50;100.00
8286;BME280;4181;43.416;24.598;2023-05-18T10:00:38;99610.06;;;19.52;100.00
8286;BME280;4181;43.416;24.598;2023-05-18T10:03:15;99596.75;;;19.54;100.00
8286;BME280;4181;43.416;24.598;2023-05-18T10:05:41;99569.25;;;19.66;100.00
8286;BME280;4181;43.416;24.598;2023-05-18T10:08:07;99565.00;;;19.68;100.00
8286;BME280;4181;43.416;24.598;2023-05-18T10:10:37;99541.53;;;19.83;100.00
8286;BME280;4181;43.416;24.598;2023-05-18T10:13:03;99517.13;;;19.76;100.00
8286;BME280;4181;43.416;24.598;2023-05-18T10:15:29;99530.97;;;19.85;100.00
8286;BME280;4181;43.416;24.598;2023-05-18T10:17:55;99540.91;;;19.86;100.00
8286;BME280;4181;43.416;24.598;2023-05-18T10:20:22;99523.16;;;19.95;100.00
8286;BME280;4181;43.416;24.598;2023-05-18T10:22:55;99497.22;;;20.08;100.00
8286;BME280;4181;43.416;24.598;2023-05-18T10:25:23;99483.19;;;20.13;100.00
8286;BME280;4181;43.416;24.598;2023-05-18T10:27:54;99479.28;;;20.14;100.00
8286;BME280;4181;43.416;24.598;2023-05-18T10:30:20;99510.41;;;20.03;100.00
8286;BME280;4181;43.416;24.598;2023-05-18T10:32:47;99501.44;;;20.14;100.00
8286;BME280;4181;43.416;24.598;2023-05-18T10:35:13;99581.63;;;19.85;100.00
8286;BME280;4181;43.416;24.598;2023-05-18T10:37:43;99621.31;;;19.55;100.00
8286;BME280;4181;43.416;24.598;2023-05-18T10:40:12;99599.03;;;19.69;100.00
8286;BME280;4181;43.416;24.598;2023-05-18T10:42:40;99554.44;;;19.79;100.00
8286;BME280;4181;43.416;24.598;2023-05-18T10:45:08;99523.97;;;19.96;100.00
8286;BME280;4181;43.416;24.598;2023-05-18T10:47:35;99508.97;;;20.05;100.00
8286;BME280;4181;43.416;24.598;2023-05-18T10:50:04;99502.91;;;20.12;100.00
8286;BME280;4181;43.416;24.598;2023-05-18T10:52:31;99496.09;;;20.18;100.00
8286;BME280;4181;43.416;24.598;2023-05-18T10:54:59;99510.72;;;20.27;100.00
8286;BME280;4181;43.416;24.598;2023-05-18T10:57:30;99528.44;;;20.43;100.00
8286;BME280;4181;43.416;24.598;2023-05-18T10:59:58;99564.47;;;20.43;100.00
8286;BME280;4181;43.416;24.598;2023-05-18T11:02:24;99564.44;;;20.52;100.00
8286;BME280;4181;43.416;24.598;2023-05-18T11:04:52;99577.94;;;20.62;100.00
8286;BME280;4181;43.416;24.598;2023-05-18T11:07:19;99619.69;;;20.65;100.00
8286;BME280;4181;43.416;24.598;2023-05-18T11:09:47;99647.25;;;20.70;100.00
8286;BME280;4181;43.416;24.598;2023-05-18T11:12:16;99665.31;;;20.76;100.00
8286;BME280;4181;43.416;24.598;2023-05-18T11:14:52;99657.97;;;20.80;100.00
8286;BME280;4181;43.416;24.598;2023-05-18T11:17:25;99669.41;;;20.79;100.00
8286;BME280;4181;43.416;24.598;2023-05-18T11:22:52;99687.66;;;20.71;100.00
8286;BME280;4181;43.416;24.598;2023-05-18T11:28:05;99663.69;;;20.75;100.00
8286;BME280;4181;43.416;24.598;2023-05-18T11:33:16;99658.63;;;20.86;100.00
8286;BME280;4181;43.416;24.598;2023-05-18T11:38:19;99680.56;;;21.16;100.00
8286;BME280;4181;43.416;24.598;2023-05-18T11:40:51;99683.59;;;21.41;100.00
8286;BME280;4181;43.416;24.598;2023-05-18T11:43:19;99705.03;;;21.61;100.00
8286;BME280;4181;43.416;24.598;2023-05-18T11:45:53;99711.78;;;21.89;100.00
8286;BME280;4181;43.416;24.598;2023-05-18T11:48:26;99728.72;;;21.96;100.00
8286;BME280;4181;43.416;24.598;2023-05-18T11:50:55;99747.94;;;22.09;100.00
8286;BME280;4181;43.416;24.598;2023-05-18T11:53:22;99764.16;;;22.28;100.00
8286;BME280;4181;43.416;24.598;2023-05-18T11:55:51;99791.91;;;22.36;100.00
8286;BME280;4181;43.416;24.598;2023-05-18T11:58:19;99815.94;;;22.32;100.00
8286;BME280;4181;43.416;24.598;2023-05-18T12:00:45;99818.25;;;22.30;100.00
8286;BME280;4181;43.416;24.598;2023-05-18T12:03:12;99853.09;;;22.28;100.00
8286;BME280;4181;43.416;24.598;2023-05-18T12:05:38;99877.03;;;22.12;100.00
8286;BME280;4181;43.416;24.598;2023-05-18T12:08:07;99859.59;;;22.03;100.00
8286;BME280;4181;43.416;24.598;2023-05-18T12:10:33;99825.09;;;22.04;100.00
8286;BME280;4181;43.416;24.598;2023-05-18T12:13:01;99829.56;;;21.96;100.00
8286;BME280;4181;43.416;24.598;2023-05-18T12:15:27;99852.19;;;21.78;100.00
8286;BME280;4181;43.416;24.598;2023-05-18T12:17:57;99869.34;;;21.63;100.00
8286;BME280;4181;43.416;24.598;2023-05-18T12:20:22;99870.13;;;21.72;100.00
8286;BME280;4181;43.416;24.598;2023-05-18T12:22:56;99884.34;;;21.79;100.00
8286;BME280;4181;43.416;24.598;2023-05-18T12:25:23;99903.59;;;21.92;100.00
8286;BME280;4181;43.416;24.598;2023-05-18T12:27:51;99885.13;;;21.96;100.00
8286;BME280;4181;43.416;24.598;2023-05-18T12:30:18;99918.75;;;21.95;100.00
8286;BME280;4181;43.416;24.598;2023-05-18T12:32:53;99947.53;;;21.99;100.00
8286;BME280;4181;43.416;24.598;2023-05-18T12:35:22;99977.91;;;22.04;100.00
8286;BME280;4181;43.416;24.598;2023-05-18T12:37:48;99984.47;;;22.08;100.00
8286;BME280;4181;43.416;24.598;2023-05-18T12:40:15;99973.75;;;22.27;100.00
8286;BME280;4181;43.416;24.598;2023-05-18T12:42:52;99966.69;;;22.38;100.00
8286;BME280;4181;43.416;24.598;2023-05-18T12:45:25;99940.81;;;22.46;100.00
8286;BME280;4181;43.416;24.598;2023-05-18T12:47:52;99939.53;;;22.35;100.00
8286;BME280;4181;43.416;24.598;2023-05-18T12:50:23;99960.88;;;22.22;100.00
8286;BME280;4181;43.416;24.598;2023-05-18T12:52:50;99969.22;;;22.14;100.00
8286;BME280;4181;43.416;24.598;2023-05-18T12:55:19;99973.84;;;22.01;100.00
8286;BME280;4181;43.416;24.598;2023-05-18T12:58:11;99977.13;;;21.61;100.00
8286;BME280;4181;43.416;24.598;2023-05-18T13:00:42;99981.03;;;21.68;100.00
8286;BME280;4181;43.416;24.598;2023-05-18T13:03:12;99975.19;;;21.53;100.00
8286;BME280;4181;43.416;24.598;2023-05-18T13:05:38;99983.53;;;21.61;100.00
8286;BME280;4181;43.416;24.598;2023-05-18T13:08:05;99988.75;;;21.46;100.00
8286;BME280;4181;43.416;24.598;2023-05-18T13:10:31;99987.75;;;21.59;100.00
8286;BME280;4181;43.416;24.598;2023-05-18T13:12:58;99986.78;;;21.55;100.00
8286;BME280;4181;43.416;24.598;2023-05-18T13:15:34;99984.31;;;21.62;100.00
8286;BME280;4181;43.416;24.598;2023-05-18T13:18:02;99986.28;;;21.61;100.00
8286;BME280;4181;43.416;24.598;2023-05-18T13:22:55;99976.63;;;21.76;100.00
8286;BME280;4181;43.416;24.598;2023-05-18T13:25:24;99986.59;;;21.85;100.00
8286;BME280;4181;43.416;24.598;2023-05-18T13:27:51;100007.03;;;21.64;100.00